Aviation Digital Data Service (ADDS)

Output produced by METARs form (1111 UTC 24 January 2019)
found at http://aviationweather.gov/metar/data/
 
KLBX 241053Z AUTO 00000KT 10SM CLR 00/00 A3013 RMK AO2 SLP203 T00000000
KLBX 241038Z AUTO 00000KT 3SM BR CLR 00/M01 A3013 RMK AO2 T00001006
KLBX 241028Z AUTO 00000KT 1 3/4SM BR CLR M01/M01 A3013 RMK AO2 T10061011
KLBX 240526Z 2406/2506 33003KT P6SM SKC 
     FM241600 14007KT P6SM SKC 
     FM250000 11005KT P6SM SCT250